createdAt,value
2023-03-15T00:00:17.964Z,87503.00
2023-03-15T00:01:17.953Z,87501.00
2023-03-15T00:02:17.970Z,87501.00
2023-03-15T00:03:17.973Z,87507.00
2023-03-15T00:04:17.936Z,87503.00
2023-03-15T00:05:17.835Z,87505.00
2023-03-15T00:06:17.888Z,87505.00
2023-03-15T00:07:17.854Z,87505.00
2023-03-15T00:08:17.748Z,87507.00
2023-03-15T00:09:17.787Z,87509.00
2023-03-15T00:10:17.690Z,87509.00
2023-03-15T00:11:17.790Z,87513.00
2023-03-15T00:12:17.676Z,87517.00
2023-03-15T00:13:17.636Z,87519.00
2023-03-15T00:14:17.675Z,87519.00
2023-03-15T00:15:17.565Z,87517.00
2023-03-15T00:16:17.880Z,87515.00
2023-03-15T00:17:17.574Z,87515.00
2023-03-15T00:18:17.499Z,87513.00
2023-03-15T00:19:17.500Z,87511.00
2023-03-15T00:20:17.485Z,87507.00
2023-03-15T00:21:17.439Z,87511.00
2023-03-15T00:22:17.485Z,87509.00
2023-03-15T00:23:17.374Z,87507.00
2023-03-15T00:24:17.444Z,87507.00
2023-03-15T00:25:17.366Z,87505.00
2023-03-15T00:26:17.286Z,87503.00
2023-03-15T00:27:17.296Z,87503.00
2023-03-15T00:28:17.281Z,87509.00
2023-03-15T00:29:17.219Z,87515.00
2023-03-15T00:30:17.220Z,87517.00
2023-03-15T00:31:17.255Z,87519.00
2023-03-15T00:32:17.128Z,87515.00
2023-03-15T00:33:17.111Z,87519.00
2023-03-15T00:34:17.155Z,87521.00
2023-03-15T00:35:17.067Z,87519.00
2023-03-15T00:36:17.081Z,87517.00
2023-03-15T00:37:17.036Z,87515.00
2023-03-15T00:38:16.988Z,87511.00
2023-03-15T00:39:16.960Z,87511.00
2023-03-15T00:40:16.982Z,87509.00
2023-03-15T00:41:16.939Z,87503.00
2023-03-15T00:42:16.987Z,87501.00
2023-03-15T00:43:16.954Z,87501.00
2023-03-15T00:44:16.932Z,87497.00
2023-03-15T00:45:16.883Z,87491.00
2023-03-15T00:46:16.859Z,87489.00
2023-03-15T00:47:16.775Z,87485.00
2023-03-15T00:48:16.758Z,87485.00
2023-03-15T00:49:16.758Z,87483.00
2023-03-15T00:50:16.772Z,87483.00
2023-03-15T00:51:16.682Z,87483.00
2023-03-15T00:52:16.666Z,87482.00
2023-03-15T00:53:16.663Z,87478.00
2023-03-15T00:54:16.634Z,87478.00
2023-03-15T00:55:16.610Z,87474.00
2023-03-15T00:56:16.636Z,87476.00
2023-03-15T00:57:16.589Z,87478.00
2023-03-15T00:58:16.585Z,87478.00
2023-03-15T00:59:16.612Z,87478.00
2023-03-15T01:00:16.507Z,87474.00
2023-03-15T01:01:16.475Z,87474.00
2023-03-15T01:02:16.469Z,87476.00
2023-03-15T01:03:16.501Z,87476.00
2023-03-15T01:04:16.430Z,87476.00
2023-03-15T01:05:16.435Z,87474.00
2023-03-15T01:06:16.382Z,87466.00
2023-03-15T01:07:16.386Z,87460.00
2023-03-15T01:08:16.308Z,87458.00
2023-03-15T01:09:16.297Z,87458.00
2023-03-15T01:10:16.340Z,87456.00
2023-03-15T01:11:16.234Z,87458.00
2023-03-15T01:12:16.205Z,87456.00
2023-03-15T01:13:16.179Z,87456.00
2023-03-15T01:14:16.214Z,87458.00
2023-03-15T01:15:16.161Z,87458.00
2023-03-15T01:16:16.185Z,87458.00
2023-03-15T01:17:16.100Z,87456.00
2023-03-15T01:18:16.076Z,87454.00
2023-03-15T01:19:16.075Z,87456.00
2023-03-15T01:20:16.072Z,87452.00
2023-03-15T01:21:16.032Z,87452.00
2023-03-15T01:22:16.006Z,87445.00
2023-03-15T01:23:16.853Z,87443.00
2023-03-15T01:24:15.971Z,87445.00
2023-03-15T01:25:15.939Z,87443.00
2023-03-15T01:26:15.933Z,87443.00
2023-03-15T01:27:15.890Z,87443.00
2023-03-15T01:28:15.936Z,87443.00
2023-03-15T01:29:15.952Z,87443.00
2023-03-15T01:30:15.841Z,87437.00
2023-03-15T01:31:15.838Z,87435.00
2023-03-15T01:32:15.758Z,87435.00
2023-03-15T01:33:15.827Z,87433.00
2023-03-15T01:34:15.709Z,87437.00
2023-03-15T01:35:15.687Z,87439.00
2023-03-15T01:36:15.725Z,87441.00
2023-03-15T01:37:15.642Z,87441.00
2023-03-15T01:38:15.637Z,87443.00
2023-03-15T01:39:15.640Z,87441.00
2023-03-15T01:40:15.630Z,87441.00
2023-03-15T01:41:15.562Z,87439.00
2023-03-15T01:42:15.575Z,87441.00
2023-03-15T01:43:15.518Z,87445.00
2023-03-15T01:44:15.463Z,87452.00
2023-03-15T01:45:15.469Z,87452.00
2023-03-15T01:46:15.521Z,87454.00
2023-03-15T01:47:15.423Z,87454.00
2023-03-15T01:48:15.441Z,87441.00
2023-03-15T01:49:15.370Z,87431.00
2023-03-15T01:50:15.400Z,87435.00
2023-03-15T01:51:15.351Z,87433.00
2023-03-15T01:52:15.441Z,87435.00
2023-03-15T01:53:15.295Z,87439.00
2023-03-15T01:54:15.291Z,87437.00
2023-03-15T01:55:15.341Z,87441.00
2023-03-15T01:56:15.234Z,87443.00
2023-03-15T01:57:15.235Z,87445.00
2023-03-15T01:58:15.182Z,87441.00
2023-03-15T01:59:15.161Z,87441.00
2023-03-15T02:00:15.210Z,87437.00
2023-03-15T02:01:15.165Z,87435.00
2023-03-15T02:02:15.200Z,87433.00
2023-03-15T02:03:15.108Z,87437.00
2023-03-15T02:04:15.045Z,87441.00
2023-03-15T02:05:15.006Z,87441.00
2023-03-15T02:06:15.035Z,87437.00
2023-03-15T02:07:14.976Z,87439.00
2023-03-15T02:08:14.941Z,87439.00
2023-03-15T02:09:15.059Z,87437.00
2023-03-15T02:10:14.910Z,87435.00
2023-03-15T02:11:14.891Z,87433.00
2023-03-15T02:12:14.852Z,87426.00
2023-03-15T02:13:14.854Z,87428.00
2023-03-15T02:14:14.815Z,87428.00
2023-03-15T02:15:14.843Z,87428.00
2023-03-15T02:16:14.879Z,87430.00
2023-03-15T02:17:14.749Z,87430.00
2023-03-15T02:18:14.746Z,87428.00
2023-03-15T02:19:14.742Z,87428.00
2023-03-15T02:20:14.692Z,87426.00
2023-03-15T02:21:14.732Z,87430.00
2023-03-15T02:22:14.700Z,87428.00
2023-03-15T02:23:14.775Z,87424.00
2023-03-15T02:24:14.624Z,87424.00
2023-03-15T02:25:14.591Z,87426.00
2023-03-15T02:26:14.574Z,87426.00
2023-03-15T02:27:14.618Z,87424.00
2023-03-15T02:28:14.534Z,87424.00
2023-03-15T02:29:14.544Z,87424.00
2023-03-15T02:30:14.475Z,87420.00
2023-03-15T02:31:14.517Z,87424.00
2023-03-15T02:32:14.469Z,87422.00
2023-03-15T02:33:14.397Z,87424.00
2023-03-15T02:34:14.400Z,87428.00
2023-03-15T02:35:14.446Z,87430.00
2023-03-15T02:36:14.393Z,87428.00
2023-03-15T02:37:14.416Z,87428.00
2023-03-15T02:38:14.333Z,87428.00
2023-03-15T02:39:14.283Z,87431.00
2023-03-15T02:40:14.274Z,87435.00
2023-03-15T02:41:14.297Z,87437.00
2023-03-15T02:42:14.250Z,87441.00
2023-03-15T02:43:14.209Z,87441.00
2023-03-15T02:44:14.240Z,87445.00
2023-03-15T02:45:14.184Z,87452.00
2023-03-15T02:46:14.256Z,87456.00
2023-03-15T02:47:14.125Z,87458.00
2023-03-15T02:48:14.102Z,87462.00
2023-03-15T02:49:14.080Z,87464.00
2023-03-15T02:50:14.083Z,87468.00
2023-03-15T02:51:14.088Z,87472.00
2023-03-15T02:52:14.174Z,87476.00
2023-03-15T02:53:14.009Z,87480.00
2023-03-15T02:54:13.987Z,87483.00
2023-03-15T02:55:13.965Z,87482.00
2023-03-15T02:56:13.946Z,87489.00
2023-03-15T02:57:13.992Z,87489.00
2023-03-15T02:58:13.893Z,87493.00
2023-03-15T02:59:13.859Z,87491.00
2023-03-15T03:00:13.886Z,87493.00
2023-03-15T03:01:13.865Z,87499.00
2023-03-15T03:02:13.846Z,87501.00
2023-03-15T03:03:13.826Z,87509.00
2023-03-15T03:04:13.764Z,87511.00
2023-03-15T03:05:13.732Z,87517.00
2023-03-15T03:06:13.722Z,87521.00
2023-03-15T03:07:13.716Z,87523.00
2023-03-15T03:08:13.651Z,87525.00
2023-03-15T03:09:13.647Z,87525.00
2023-03-15T03:10:13.608Z,87531.00
2023-03-15T03:11:13.648Z,87525.00
2023-03-15T03:12:13.586Z,87527.00
2023-03-15T03:13:13.550Z,87525.00
2023-03-15T03:14:13.565Z,87519.00
2023-03-15T03:15:13.502Z,87527.00
2023-03-15T03:16:13.555Z,87525.00
2023-03-15T03:17:13.537Z,87527.00
2023-03-15T03:18:13.448Z,87523.00
2023-03-15T03:19:13.529Z,87523.00
2023-03-15T03:20:13.446Z,87531.00
2023-03-15T03:21:13.387Z,87533.00
2023-03-15T03:22:13.568Z,87537.00
2023-03-15T03:23:13.358Z,87537.00
2023-03-15T03:24:13.359Z,87540.00
2023-03-15T03:25:13.356Z,87548.00
2023-03-15T03:26:13.354Z,87544.00
2023-03-15T03:27:13.299Z,87550.00
2023-03-15T03:28:13.355Z,87550.00
2023-03-15T03:29:13.332Z,87550.00
2023-03-15T03:30:13.272Z,87554.00
2023-03-15T03:31:13.305Z,87556.00
2023-03-15T03:32:13.231Z,87558.00
2023-03-15T03:33:13.250Z,87556.00
2023-03-15T03:34:13.216Z,87554.00
2023-03-15T03:35:15.587Z,87560.00
2023-03-15T03:36:13.272Z,87558.00
2023-03-15T03:37:13.270Z,87570.00
2023-03-15T03:38:13.204Z,87568.00
2023-03-15T03:39:13.194Z,87560.00
2023-03-15T03:40:13.170Z,87568.00
2023-03-15T03:41:13.168Z,87564.00
2023-03-15T03:42:13.349Z,87562.00
2023-03-15T03:43:13.128Z,87568.00
2023-03-15T03:44:13.220Z,87568.00
2023-03-15T03:45:13.145Z,87570.00
2023-03-15T03:46:13.236Z,87586.00
2023-03-15T03:47:13.169Z,87586.00
2023-03-15T03:48:13.172Z,87580.00
2023-03-15T03:49:13.120Z,87588.00
2023-03-15T03:50:13.109Z,87586.00
2023-03-15T03:51:13.124Z,87576.00
2023-03-15T03:52:13.067Z,87590.00
2023-03-15T03:53:13.070Z,87586.00
2023-03-15T03:54:13.025Z,87586.00
2023-03-15T03:55:13.007Z,87590.00
2023-03-15T03:56:13.031Z,87590.00
2023-03-15T03:57:13.060Z,87597.00
2023-03-15T03:58:13.146Z,87599.00
2023-03-15T03:59:12.942Z,87603.00
2023-03-15T04:00:12.950Z,87605.00
2023-03-15T04:01:12.983Z,87601.00
2023-03-15T04:02:12.957Z,87603.00
2023-03-15T04:03:12.965Z,87609.00
2023-03-15T04:04:13.016Z,87609.00
2023-03-15T04:05:12.891Z,87611.00
2023-03-15T04:06:12.857Z,87617.00
2023-03-15T04:07:12.840Z,87623.00
2023-03-15T04:08:12.875Z,87629.00
2023-03-15T04:09:12.812Z,87625.00
2023-03-15T04:10:12.792Z,87625.00
2023-03-15T04:11:12.817Z,87639.00
2023-03-15T04:12:12.785Z,87631.00
2023-03-15T04:13:12.834Z,87639.00
2023-03-15T04:14:12.727Z,87643.00
2023-03-15T04:15:12.703Z,87643.00
2023-03-15T04:16:12.762Z,87645.00
2023-03-15T04:17:12.670Z,87645.00
2023-03-15T04:18:12.662Z,87641.00
2023-03-15T04:19:12.630Z,87641.00
2023-03-15T04:20:12.651Z,87641.00
2023-03-15T04:21:12.581Z,87645.00
2023-03-15T04:22:12.574Z,87648.00
2023-03-15T04:23:12.550Z,87658.00
2023-03-15T04:24:12.539Z,87662.00
2023-03-15T04:25:12.534Z,87658.00
2023-03-15T04:26:12.497Z,87654.00
2023-03-15T04:27:12.472Z,87658.00
2023-03-15T04:28:12.495Z,87662.00
2023-03-15T04:29:12.466Z,87666.00
2023-03-15T04:30:12.441Z,87666.00
2023-03-15T04:31:12.492Z,87670.00
2023-03-15T04:32:12.391Z,87666.00
2023-03-15T04:33:12.388Z,87664.00
2023-03-15T04:34:12.380Z,87662.00
2023-03-15T04:35:12.395Z,87662.00
2023-03-15T04:36:12.378Z,87670.00
2023-03-15T04:37:12.323Z,87670.00
2023-03-15T04:38:12.306Z,87672.00
2023-03-15T04:39:12.302Z,87680.00
2023-03-15T04:40:12.268Z,87680.00
2023-03-15T04:41:12.270Z,87680.00
2023-03-15T04:42:12.286Z,87684.00
2023-03-15T04:43:12.273Z,87684.00
2023-03-15T04:44:12.211Z,87688.00
2023-03-15T04:45:12.189Z,87690.00
2023-03-15T04:46:12.172Z,87697.00
2023-03-15T04:47:12.179Z,87699.00
2023-03-15T04:48:12.195Z,87697.00
2023-03-15T04:49:12.150Z,87708.00
2023-03-15T04:50:12.144Z,87710.00
2023-03-15T04:51:12.120Z,87699.00
2023-03-15T04:52:12.144Z,87708.00
2023-03-15T04:53:12.148Z,87708.00
2023-03-15T04:54:12.078Z,87714.00
2023-03-15T04:55:12.084Z,87718.00
2023-03-15T04:56:12.057Z,87724.00
2023-03-15T04:57:12.062Z,87716.00
2023-03-15T04:58:12.039Z,87720.00
2023-03-15T04:59:12.078Z,87722.00
2023-03-15T05:00:12.048Z,87722.00
2023-03-15T05:01:12.096Z,87724.00
2023-03-15T05:02:12.067Z,87720.00
2023-03-15T05:03:11.982Z,87722.00
2023-03-15T05:04:11.998Z,87726.00
2023-03-15T05:05:11.957Z,87728.00
2023-03-15T05:06:11.946Z,87730.00
2023-03-15T05:07:11.906Z,87734.00
2023-03-15T05:08:11.988Z,87734.00
2023-03-15T05:09:11.903Z,87740.00
2023-03-15T05:10:11.900Z,87740.00
2023-03-15T05:11:11.937Z,87736.00
2023-03-15T05:12:11.851Z,87740.00
2023-03-15T05:13:11.849Z,87740.00
2023-03-15T05:14:11.895Z,87740.00
2023-03-15T05:15:11.865Z,87740.00
2023-03-15T05:16:11.859Z,87746.00
2023-03-15T05:17:11.779Z,87746.00
2023-03-15T05:18:11.815Z,87744.00
2023-03-15T05:19:11.754Z,87740.00
2023-03-15T05:20:11.772Z,87740.00
2023-03-15T05:21:11.777Z,87744.00
2023-03-15T05:22:11.720Z,87748.00
2023-03-15T05:23:11.707Z,87746.00
2023-03-15T05:24:11.848Z,87748.00
2023-03-15T05:25:11.713Z,87750.00
2023-03-15T07:59:08.872Z,88018.00
2023-03-15T08:00:08.835Z,88022.00
2023-03-15T08:01:08.769Z,88018.00
2023-03-15T08:02:08.795Z,88020.00
2023-03-15T08:03:08.756Z,88024.00
2023-03-15T08:04:08.589Z,88018.00
2023-03-15T08:05:08.573Z,88018.00
2023-03-15T08:06:08.640Z,88020.00
2023-03-15T08:07:08.507Z,88022.00
2023-03-15T08:08:08.978Z,88024.00
2023-03-15T08:09:08.405Z,88020.00
2023-03-15T08:10:09.018Z,88016.00
2023-03-15T08:11:08.311Z,88018.00
2023-03-15T08:12:08.339Z,88022.00
2023-03-15T08:13:08.265Z,88020.00
2023-03-15T08:14:08.160Z,88016.00
2023-03-15T08:15:08.159Z,88018.00
2023-03-15T08:16:08.560Z,88020.00
2023-03-15T08:17:08.066Z,88014.00
2023-03-15T08:18:08.015Z,88020.00
2023-03-15T08:19:08.082Z,88018.00
2023-03-15T08:20:08.094Z,88016.00
2023-03-15T08:21:07.910Z,88016.00
2023-03-15T08:22:08.091Z,88018.00
2023-03-15T08:23:07.873Z,88012.00
2023-03-15T08:24:07.823Z,88014.00
2023-03-15T08:25:07.716Z,88012.00
2023-03-15T08:26:08.485Z,88016.00
2023-03-15T08:27:07.636Z,88014.00
2023-03-15T08:28:07.586Z,88010.00
2023-03-15T08:29:07.577Z,88018.00
2023-03-15T08:30:07.476Z,88018.00
2023-03-15T08:31:07.909Z,88014.00
2023-03-15T08:32:07.612Z,88014.00
2023-03-15T08:33:08.402Z,88014.00
2023-03-15T08:34:07.409Z,88018.00
2023-03-15T08:35:07.334Z,88018.00
2023-03-15T08:36:07.357Z,88020.00
2023-03-15T08:37:07.723Z,88018.00
2023-03-15T08:38:07.233Z,88020.00
2023-03-15T08:39:07.149Z,88024.00
2023-03-15T08:40:07.120Z,88020.00
2023-03-15T08:41:07.049Z,88024.00
2023-03-15T08:42:07.276Z,88020.00
2023-03-15T08:43:06.973Z,88020.00
2023-03-15T08:44:06.963Z,88022.00
2023-03-15T08:45:06.940Z,88024.00
2023-03-15T08:46:06.879Z,88018.00
2023-03-15T08:47:06.817Z,88028.00
2023-03-15T08:48:06.731Z,88024.00
2023-03-15T08:49:06.719Z,88018.00
2023-03-15T08:50:06.700Z,88026.00
2023-03-15T08:51:06.630Z,88024.00
2023-03-15T08:52:06.565Z,88026.00
2023-03-15T08:53:06.595Z,88022.00
2023-03-15T08:54:06.550Z,88022.00
2023-03-15T08:55:06.429Z,88020.00
2023-03-15T08:56:06.431Z,88020.00
2023-03-15T08:57:06.525Z,88026.00
2023-03-15T08:58:06.320Z,88024.00
2023-03-15T08:59:07.006Z,88024.00
2023-03-15T09:00:06.254Z,88024.00
2023-03-15T09:01:06.167Z,88022.00
2023-03-15T09:02:06.258Z,88022.00
2023-03-15T09:03:06.105Z,88028.00
2023-03-15T09:04:06.076Z,88024.00
2023-03-15T09:05:06.027Z,88018.00
2023-03-15T09:06:06.057Z,88028.00
2023-03-15T09:07:05.936Z,88028.00
2023-03-15T09:08:05.895Z,88030.00
2023-03-15T09:09:05.868Z,88024.00
2023-03-15T09:10:05.846Z,88028.00
2023-03-15T09:11:05.740Z,88028.00
2023-03-15T09:12:05.705Z,88026.00
2023-03-15T09:13:06.490Z,88026.00
2023-03-15T09:14:05.616Z,88022.00
2023-03-15T09:15:07.565Z,88026.00
2023-03-15T09:16:05.506Z,88026.00
2023-03-15T09:17:06.118Z,88016.00
2023-03-15T09:18:05.407Z,88016.00
2023-03-15T09:19:05.433Z,88026.00
2023-03-15T09:20:05.299Z,88028.00
2023-03-15T09:21:05.278Z,88033.00
2023-03-15T09:22:16.868Z,88022.00
2023-03-15T09:23:06.175Z,88028.00
2023-03-15T09:24:05.121Z,88030.00
2023-03-15T09:25:05.163Z,88030.00
2023-03-15T09:26:05.049Z,88028.00
2023-03-15T09:27:05.068Z,88022.00
2023-03-15T09:28:04.969Z,88020.00
2023-03-15T09:29:04.925Z,88024.00
2023-03-15T09:30:04.902Z,88026.00
2023-03-15T09:31:04.838Z,88030.00
2023-03-15T09:32:04.761Z,88022.00
2023-03-15T09:33:04.862Z,88030.00
2023-03-15T09:34:04.663Z,88028.00
2023-03-15T09:35:04.649Z,88026.00
2023-03-15T09:36:04.805Z,88024.00
2023-03-15T09:37:04.490Z,88028.00
2023-03-15T09:38:04.481Z,88031.00
2023-03-15T09:39:04.402Z,88033.00
2023-03-15T09:40:04.375Z,88033.00
2023-03-15T09:41:04.359Z,88033.00
2023-03-15T09:42:06.461Z,88037.00
2023-03-15T09:43:04.239Z,88037.00
2023-03-15T09:44:04.291Z,88039.00
2023-03-15T09:45:04.159Z,88043.00
2023-03-15T09:46:04.126Z,88035.00
2023-03-15T09:47:04.062Z,88035.00
2023-03-15T09:48:04.518Z,88047.00
2023-03-15T09:49:03.898Z,88043.00
2023-03-15T09:50:03.963Z,88055.00
2023-03-15T09:51:03.807Z,88045.00
2023-03-15T09:52:03.773Z,88039.00
2023-03-15T09:53:03.737Z,88039.00
2023-03-15T09:54:03.714Z,88033.00
2023-03-15T09:55:03.782Z,88043.00
2023-03-15T09:56:03.694Z,88035.00
2023-03-15T09:57:03.644Z,88045.00
2023-03-15T09:58:03.649Z,88043.00
2023-03-15T09:59:03.657Z,88047.00
2023-03-15T10:00:03.619Z,88043.00
2023-03-15T10:01:03.586Z,88035.00
2023-03-15T10:02:03.599Z,88037.00
2023-03-15T10:03:03.567Z,88039.00
2023-03-15T10:04:03.571Z,88035.00
2023-03-15T10:05:03.509Z,88037.00
2023-03-15T10:06:03.529Z,88041.00
2023-03-15T10:07:03.515Z,88059.00
2023-03-15T10:08:03.573Z,88049.00
2023-03-15T10:09:03.485Z,88045.00
2023-03-15T10:10:03.490Z,88049.00
2023-03-15T10:11:03.512Z,88047.00
2023-03-15T10:12:03.552Z,88047.00
2023-03-15T10:13:03.444Z,88047.00
2023-03-15T10:14:03.461Z,88051.00
2023-03-15T10:15:03.431Z,88053.00
2023-03-15T10:16:03.693Z,88047.00
2023-03-15T10:17:03.430Z,88049.00
2023-03-15T10:18:03.436Z,88051.00
2023-03-15T10:19:03.482Z,88053.00
2023-03-15T10:20:03.531Z,88057.00
2023-03-15T10:21:03.407Z,88059.00
2023-03-15T10:22:03.391Z,88059.00
2023-03-15T10:23:03.426Z,88057.00
2023-03-15T10:24:03.375Z,88053.00
2023-03-15T10:25:03.396Z,88055.00
2023-03-15T10:26:03.344Z,88065.00
2023-03-15T10:27:03.444Z,88061.00
2023-03-15T10:28:03.419Z,88061.00
2023-03-15T10:29:03.365Z,88053.00
2023-03-15T10:30:03.383Z,88051.00
2023-03-15T10:31:03.397Z,88053.00
2023-03-15T10:32:03.338Z,88055.00
2023-03-15T10:33:03.631Z,88057.00
2023-03-15T10:34:03.380Z,88057.00
2023-03-15T10:35:03.334Z,88043.00
2023-03-15T10:36:11.717Z,88049.00
2023-03-15T10:37:07.069Z,88047.00
2023-03-15T10:38:03.356Z,88051.00
2023-03-15T10:39:03.330Z,88053.00
2023-03-15T10:40:03.962Z,88049.00
2023-03-15T10:41:03.343Z,88049.00
2023-03-15T10:42:03.329Z,88049.00
2023-03-15T10:43:03.339Z,88057.00
2023-03-15T10:44:03.356Z,88053.00
2023-03-15T10:45:03.316Z,88051.00
2023-03-15T10:46:03.391Z,88051.00
2023-03-15T10:47:12.992Z,88051.00
2023-03-15T10:48:04.303Z,88049.00
2023-03-15T10:49:03.303Z,88055.00
2023-03-15T10:50:03.212Z,88053.00
2023-03-15T10:51:03.226Z,88055.00
2023-03-15T10:52:03.176Z,88053.00
2023-03-15T10:53:04.072Z,88049.00
2023-03-15T10:54:03.187Z,88055.00
2023-03-15T10:55:04.523Z,88053.00
2023-03-15T10:56:03.116Z,88053.00
2023-03-15T10:57:03.140Z,88053.00
2023-03-15T10:58:03.102Z,88055.00
2023-03-15T10:59:12.434Z,88057.00
2023-03-15T11:00:04.138Z,88055.00
2023-03-15T11:01:03.002Z,88055.00
2023-03-15T11:02:02.983Z,88055.00
2023-03-15T11:03:03.020Z,88055.00
2023-03-15T11:04:02.960Z,88053.00
2023-03-15T11:05:02.938Z,88055.00
2023-03-15T11:06:02.856Z,88063.00
2023-03-15T11:07:02.870Z,88061.00
2023-03-15T11:08:02.840Z,88053.00
2023-03-15T11:09:02.797Z,88053.00
2023-03-15T11:10:02.807Z,88057.00
2023-03-15T11:11:02.730Z,88055.00
2023-03-15T11:12:02.685Z,88045.00
2023-03-15T11:13:03.536Z,88053.00
2023-03-15T11:14:02.699Z,88045.00
2023-03-15T11:15:02.603Z,88049.00
2023-03-15T11:16:02.719Z,88049.00
2023-03-15T11:17:02.584Z,88047.00
2023-03-15T11:18:02.557Z,88049.00
2023-03-15T11:19:02.561Z,88051.00
2023-03-15T11:20:02.491Z,88057.00
2023-03-15T11:21:02.475Z,88049.00
2023-03-15T11:22:02.436Z,88059.00
2023-03-15T11:23:02.391Z,88047.00
2023-03-15T11:24:02.376Z,88057.00
2023-03-15T11:25:02.473Z,88047.00
2023-03-15T11:26:02.295Z,88049.00
2023-03-15T11:27:02.271Z,88047.00
2023-03-15T11:28:02.236Z,88051.00
2023-03-15T11:29:02.232Z,88049.00
2023-03-15T11:30:02.448Z,88051.00
2023-03-15T11:31:02.123Z,88045.00
2023-03-15T11:32:02.103Z,88043.00
2023-03-15T11:33:02.272Z,88043.00
2023-03-15T11:34:02.132Z,88041.00
2023-03-15T11:35:01.986Z,88039.00
2023-03-15T11:36:02.099Z,88039.00
2023-03-15T11:37:08.373Z,88041.00
2023-03-15T11:38:14.676Z,88041.00
2023-03-15T11:39:03.198Z,88039.00
2023-03-15T11:40:11.274Z,88031.00
2023-03-15T11:41:02.837Z,88037.00
2023-03-15T11:42:01.776Z,88037.00
2023-03-15T11:43:01.734Z,88037.00
2023-03-15T11:45:02.540Z,88035.00
2023-03-15T12:06:03.701Z,88024.00
2023-03-15T14:22:04.922Z,88043.00
2023-03-15T15:43:54.840Z,88079.00
2023-03-15T15:44:54.664Z,88082.00
2023-03-15T15:45:54.626Z,88082.00
2023-03-15T15:46:55.193Z,88081.00
2023-03-15T15:47:54.676Z,88088.00
2023-03-15T15:48:55.151Z,88088.00
2023-03-15T15:49:54.583Z,88086.00
2023-03-15T15:50:55.132Z,88084.00
2023-03-15T15:51:54.440Z,88092.00
2023-03-15T15:52:54.608Z,88098.00
2023-03-15T15:53:54.375Z,88096.00
2023-03-15T15:54:54.357Z,88090.00
2023-03-15T15:55:54.311Z,88090.00
2023-03-15T15:56:54.349Z,88086.00
2023-03-15T15:57:55.717Z,88098.00
2023-03-15T15:58:54.252Z,88100.00
2023-03-15T15:59:54.256Z,88098.00
2023-03-15T16:00:54.217Z,88100.00
2023-03-15T16:02:00.549Z,88098.00
2023-03-15T16:02:55.186Z,88096.00
2023-03-15T16:03:54.162Z,88090.00
2023-03-15T16:04:54.078Z,88100.00
2023-03-15T16:05:54.146Z,88106.00
2023-03-15T16:06:54.024Z,88096.00
2023-03-15T16:07:54.053Z,88098.00
2023-03-15T16:08:53.985Z,88102.00
2023-03-15T16:09:55.401Z,88098.00
2023-03-15T16:10:53.933Z,88098.00
2023-03-15T16:11:53.961Z,88092.00
2023-03-15T16:12:53.887Z,88102.00
2023-03-15T16:13:53.883Z,88100.00
2023-03-15T16:14:53.828Z,88104.00
2023-03-15T16:15:53.950Z,88106.00
2023-03-15T16:16:53.769Z,88102.00
2023-03-15T16:17:53.731Z,88114.00
2023-03-15T16:18:53.721Z,88108.00
2023-03-15T16:19:53.756Z,88110.00
2023-03-15T16:20:53.663Z,88114.00
2023-03-15T16:21:53.665Z,88118.00
2023-03-15T16:22:53.704Z,88112.00
2023-03-15T16:23:53.591Z,88110.00
2023-03-15T16:24:53.568Z,88114.00
2023-03-15T16:25:53.546Z,88110.00
2023-03-15T16:26:53.558Z,88120.00
2023-03-15T16:27:53.529Z,88120.00
2023-03-15T16:28:53.474Z,88120.00
2023-03-15T16:29:53.438Z,88122.00
2023-03-15T16:30:53.488Z,88130.00
2023-03-15T16:31:54.719Z,88130.00
2023-03-15T16:32:53.455Z,88128.00
2023-03-15T16:33:53.370Z,88126.00
2023-03-15T16:34:53.380Z,88128.00
2023-03-15T16:35:53.442Z,88128.00
2023-03-15T16:36:53.291Z,88130.00
2023-03-15T16:37:53.280Z,88128.00
2023-03-15T16:38:53.259Z,88136.00
2023-03-15T16:39:53.225Z,88137.00
2023-03-15T16:40:53.297Z,88134.00
2023-03-15T16:41:53.255Z,88137.00
2023-03-15T16:42:53.135Z,88134.00
2023-03-15T16:43:53.144Z,88145.00
2023-03-15T16:44:53.096Z,88145.00
2023-03-15T16:45:53.079Z,88147.00
2023-03-15T16:46:53.125Z,88147.00
2023-03-15T16:47:53.076Z,88149.00
2023-03-15T16:48:53.072Z,88161.00
2023-03-15T16:49:53.010Z,88163.00
2023-03-15T16:50:52.985Z,88155.00
2023-03-15T16:51:53.022Z,88157.00
2023-03-15T16:52:52.998Z,88165.00
2023-03-15T16:54:02.248Z,88165.00
2023-03-15T16:54:53.947Z,88159.00
2023-03-15T16:55:52.929Z,88165.00
2023-03-15T16:56:52.926Z,88169.00
2023-03-15T16:57:52.899Z,88159.00
2023-03-15T16:58:52.892Z,88165.00
2023-03-15T16:59:52.880Z,88165.00
2023-03-15T17:00:52.854Z,88165.00
2023-03-15T17:01:52.840Z,88165.00
2023-03-15T17:02:52.831Z,88169.00
2023-03-15T17:03:52.846Z,88173.00
2023-03-15T17:04:52.828Z,88175.00
2023-03-15T17:05:52.789Z,88175.00
2023-03-15T17:06:52.823Z,88173.00
2023-03-15T17:07:52.767Z,88175.00
2023-03-15T17:08:52.750Z,88175.00
2023-03-15T17:09:52.787Z,88175.00
2023-03-15T17:10:52.709Z,88175.00
2023-03-15T17:11:52.642Z,88173.00
2023-03-15T17:12:52.632Z,88177.00
2023-03-15T17:13:52.602Z,88181.00
2023-03-15T17:14:52.607Z,88184.00
2023-03-15T17:15:52.636Z,88184.00
2023-03-15T17:16:52.556Z,88186.00
2023-03-15T17:17:52.553Z,88186.00
2023-03-15T17:18:52.546Z,88183.00
2023-03-15T17:19:52.525Z,88179.00
2023-03-15T17:20:52.501Z,88184.00
2023-03-15T17:21:52.497Z,88188.00
2023-03-15T17:22:52.453Z,88188.00
2023-03-15T17:23:52.499Z,88186.00
2023-03-15T17:24:52.421Z,88186.00
2023-03-15T17:25:52.418Z,88188.00
2023-03-15T17:26:52.392Z,88190.00
2023-03-15T17:27:52.456Z,88194.00
2023-03-15T17:28:52.368Z,88196.00
2023-03-15T17:29:52.351Z,88198.00
2023-03-15T17:30:59.847Z,88200.00
2023-03-15T17:31:53.340Z,88200.00
2023-03-15T17:32:52.368Z,88200.00
2023-03-15T17:33:52.310Z,88202.00
2023-03-15T17:34:52.265Z,88204.00
2023-03-15T17:35:52.294Z,88206.00
2023-03-15T17:36:52.237Z,88206.00
2023-03-15T17:37:52.233Z,88202.00
2023-03-15T17:38:52.217Z,88202.00
2023-03-15T17:39:52.203Z,88206.00
2023-03-15T17:40:52.209Z,88208.00
2023-03-15T17:41:52.183Z,88210.00
2023-03-15T17:42:52.190Z,88212.00
2023-03-15T17:43:52.138Z,88212.00
2023-03-15T17:44:52.146Z,88212.00
2023-03-15T17:45:52.110Z,88214.00
2023-03-15T17:46:52.172Z,88210.00
2023-03-15T17:47:52.077Z,88210.00
2023-03-15T17:48:52.046Z,88214.00
2023-03-15T17:49:52.050Z,88221.00
2023-03-15T17:50:52.021Z,88221.00
2023-03-15T17:51:52.043Z,88223.00
2023-03-15T17:52:52.001Z,88223.00
2023-03-15T17:53:51.953Z,88214.00
2023-03-15T17:54:51.980Z,88227.00
2023-03-15T17:55:51.919Z,88225.00
2023-03-15T17:56:51.925Z,88229.00
2023-03-15T17:57:55.060Z,88227.00
2023-03-15T17:58:51.901Z,88227.00
2023-03-15T17:59:51.865Z,88225.00
2023-03-15T18:00:51.888Z,88231.00
2023-03-15T18:01:51.915Z,88227.00
2023-03-15T18:02:56.196Z,88227.00
2023-03-15T18:03:51.818Z,88231.00
2023-03-15T18:04:51.767Z,88233.00
2023-03-15T18:06:51.735Z,88231.00
2023-03-15T18:07:58.582Z,88229.00
2023-03-15T18:09:51.773Z,88231.00
2023-03-15T18:38:51.772Z,88248.00
2023-03-15T19:15:50.384Z,88268.00
2023-03-15T19:16:50.429Z,88266.00
2023-03-15T19:17:50.356Z,88266.00
2023-03-15T19:18:50.314Z,88274.00
2023-03-15T19:19:50.279Z,88272.00